createdAt,value
2019-03-24T00:03:43.653Z,7.30
2019-03-24T00:09:02.321Z,7.57
2019-03-24T00:14:20.878Z,6.97
2019-03-24T00:19:39.513Z,7.27
2019-03-24T00:24:58.075Z,7.80
2019-03-24T00:30:16.725Z,7.25
2019-03-24T00:35:35.341Z,7.97
2019-03-24T00:40:53.974Z,8.97
2019-03-24T00:46:12.886Z,9.23
2019-03-24T00:51:31.533Z,10.68
2019-03-24T00:56:50.105Z,10.93
2019-03-24T01:02:08.747Z,10.63
2019-03-24T01:07:27.369Z,9.97
2019-03-24T01:12:45.985Z,10.57
2019-03-24T01:18:04.599Z,10.23
2019-03-24T01:23:23.160Z,10.23
2019-03-24T01:28:41.721Z,11.93
2019-03-24T01:34:00.344Z,10.90
2019-03-24T01:39:19.061Z,12.63
2019-03-24T01:44:37.672Z,14.47
2019-03-24T01:49:56.315Z,12.60
2019-03-24T01:55:14.950Z,14.05
2019-03-24T02:00:35.431Z,14.60
2019-03-24T02:05:54.002Z,15.03
2019-03-24T02:11:12.641Z,13.43
2019-03-24T02:16:31.280Z,13.07
2019-03-24T02:21:49.840Z,15.27
2019-03-24T02:27:08.488Z,15.43
2019-03-24T02:32:27.131Z,14.80
2019-03-24T02:37:45.764Z,14.40
2019-03-24T02:43:04.641Z,14.73
2019-03-24T02:48:23.216Z,15.27
2019-03-24T02:53:41.839Z,12.97
2019-03-24T02:59:00.452Z,13.53
2019-03-24T03:04:19.126Z,13.10
2019-03-24T03:09:37.754Z,11.73
2019-03-24T03:14:56.401Z,12.70
2019-03-24T03:20:15.131Z,13.72
2019-03-24T03:25:33.677Z,12.23
2019-03-24T03:30:52.307Z,12.67
2019-03-24T03:36:10.928Z,11.37
2019-03-24T03:41:29.668Z,11.90
2019-03-24T03:46:52.864Z,10.03
2019-03-24T03:52:08.663Z,10.10
2019-03-24T03:57:27.316Z,11.30
2019-03-24T04:02:45.970Z,9.53
2019-03-24T04:08:04.991Z,7.73
2019-03-24T04:13:23.623Z,7.53
2019-03-24T04:18:42.206Z,5.77
2019-03-24T04:24:00.747Z,6.57
2019-03-24T04:29:19.331Z,5.60
2019-03-24T04:34:38.246Z,5.00
2019-03-24T04:39:56.794Z,4.33
2019-03-24T04:45:15.445Z,4.67
2019-03-24T04:50:34.010Z,4.93
2019-03-24T04:55:52.622Z,4.80
2019-03-24T05:01:11.146Z,3.87
2019-03-24T05:06:30.690Z,5.03
2019-03-24T05:11:49.250Z,3.90
2019-03-24T05:17:07.855Z,4.60
2019-03-24T05:22:26.427Z,4.67
2019-03-24T05:27:44.975Z,4.10
2019-03-24T05:33:03.610Z,4.87
2019-03-24T05:38:22.173Z,3.93
2019-03-24T05:43:40.798Z,3.67
2019-03-24T05:49:01.273Z,3.30
2019-03-24T05:54:19.990Z,3.23
2019-03-24T05:59:38.791Z,3.85
2019-03-24T06:04:57.358Z,3.13
2019-03-24T06:10:15.977Z,4.20
2019-03-24T06:15:34.592Z,3.17
2019-03-24T06:20:53.342Z,3.47
2019-03-24T06:26:11.910Z,4.03
2019-03-24T06:31:30.452Z,3.27
2019-03-24T06:36:49.019Z,3.50
2019-03-24T06:42:07.572Z,3.57
2019-03-24T06:47:26.130Z,3.93
2019-03-24T06:52:44.948Z,4.20
2019-03-24T06:58:03.514Z,3.87
2019-03-24T07:03:22.458Z,3.33
2019-03-24T07:08:41.036Z,4.13
2019-03-24T07:13:59.666Z,3.77
2019-03-24T07:19:18.167Z,4.67
2019-03-24T07:24:36.959Z,4.00
2019-03-24T07:29:55.450Z,4.50
2019-03-24T07:35:14.160Z,4.50
2019-03-24T07:40:32.738Z,4.43
2019-03-24T07:45:51.322Z,4.10
2019-03-24T07:51:10.211Z,7.63
2019-03-24T07:56:28.835Z,4.33
2019-03-24T08:01:47.410Z,4.60
2019-03-24T08:07:06.086Z,5.17
2019-03-24T08:12:24.653Z,5.10
2019-03-24T08:17:43.196Z,4.70
2019-03-24T08:23:01.672Z,4.50
2019-03-24T08:28:20.212Z,4.67
2019-03-24T08:33:38.823Z,4.63
2019-03-24T08:38:57.475Z,4.97
2019-03-24T08:44:16.108Z,5.93
2019-03-24T08:49:34.665Z,5.37
2019-03-24T08:54:53.346Z,6.00
2019-03-24T09:00:11.947Z,5.37
2019-03-24T09:05:30.792Z,6.47
2019-03-24T09:10:49.406Z,8.13
2019-03-24T09:16:08.094Z,8.07
2019-03-24T09:21:26.732Z,8.23
2019-03-24T09:26:45.336Z,7.77
2019-03-24T09:32:04.114Z,8.60
2019-03-24T09:37:22.751Z,7.40
2019-03-24T09:42:41.230Z,8.47
2019-03-24T09:48:00.455Z,6.80
2019-03-24T09:53:19.155Z,7.03
2019-03-24T09:58:37.760Z,6.67
2019-03-24T10:03:56.446Z,7.53
2019-03-24T10:09:15.104Z,7.97
2019-03-24T10:14:33.815Z,8.70
2019-03-24T10:19:52.290Z,7.17
2019-03-24T10:25:10.904Z,8.25
2019-03-24T10:30:29.454Z,9.10
2019-03-24T10:35:48.010Z,7.97
2019-03-24T10:41:06.618Z,9.30
2019-03-24T10:46:25.134Z,7.43
2019-03-24T10:51:43.695Z,7.33
2019-03-24T10:57:02.246Z,7.03
2019-03-24T11:02:20.885Z,6.33
2019-03-24T11:07:39.437Z,6.30
2019-03-24T11:12:58.412Z,7.40
2019-03-24T11:18:17.299Z,6.20
2019-03-24T11:23:35.858Z,4.70
2019-03-24T11:28:54.479Z,4.60
2019-03-24T11:34:12.963Z,5.50
2019-03-24T11:39:31.515Z,5.17
2019-03-24T11:44:50.059Z,5.63
2019-03-24T11:50:09.927Z,4.90
2019-03-24T11:55:28.569Z,5.47
2019-03-24T12:00:47.187Z,6.70
2019-03-24T12:06:13.970Z,5.70
2019-03-24T12:11:26.074Z,6.43
2019-03-24T12:16:44.696Z,8.07
2019-03-24T12:22:03.325Z,7.03
2019-03-24T12:27:21.807Z,6.60
2019-03-24T12:32:40.737Z,7.47
2019-03-24T12:37:59.358Z,6.33
2019-03-24T12:43:19.763Z,4.87
2019-03-24T12:48:38.120Z,5.07
2019-03-24T12:53:56.683Z,4.60
2019-03-24T12:59:15.164Z,4.10
2019-03-24T13:04:34.106Z,3.83
2019-03-24T13:09:52.767Z,2.43
2019-03-24T13:15:11.746Z,3.10
2019-03-24T13:20:38.183Z,2.93
2019-03-24T13:25:51.197Z,2.80
2019-03-24T13:31:09.907Z,2.20
2019-03-24T13:36:28.402Z,2.47
2019-03-24T13:41:47.016Z,2.43
2019-03-24T13:47:05.709Z,2.40
2019-03-24T13:52:25.050Z,2.10
2019-03-24T13:57:43.737Z,2.57
2019-03-24T14:03:02.473Z,2.27
2019-03-24T14:08:21.160Z,2.00
2019-03-24T14:13:39.767Z,2.10
2019-03-24T14:18:58.486Z,2.40
2019-03-24T14:24:20.161Z,2.60
2019-03-24T14:29:38.772Z,2.83
2019-03-24T14:34:57.380Z,2.37
2019-03-24T15:03:33.691Z,1.90
2019-03-24T15:55:46.685Z,2.50
2019-03-24T16:01:05.319Z,2.07
2019-03-24T16:06:23.957Z,1.90
2019-03-24T16:11:42.499Z,1.93
2019-03-24T16:17:01.421Z,2.00
2019-03-24T16:22:20.136Z,2.23
2019-03-24T16:27:38.779Z,2.30
2019-03-24T16:32:57.369Z,2.10
2019-03-24T16:38:15.916Z,1.97
2019-03-24T16:43:34.527Z,1.80
2019-03-24T16:48:53.133Z,1.60
2019-03-24T16:54:11.968Z,1.90
2019-03-24T16:59:30.796Z,1.75
2019-03-24T17:04:49.471Z,2.30
2019-03-24T17:10:08.403Z,2.20
2019-03-24T17:15:27.021Z,2.37
2019-03-24T17:20:45.511Z,2.27
2019-03-24T17:26:04.187Z,1.90
2019-03-24T17:31:23.894Z,2.37
2019-03-24T17:36:42.379Z,2.50
2019-03-24T17:42:01.273Z,2.00
2019-03-24T17:47:19.907Z,1.80
2019-03-24T17:52:38.734Z,2.10
2019-03-24T17:57:57.296Z,2.83
2019-03-24T18:03:16.043Z,2.53
2019-03-24T18:08:34.677Z,2.60
2019-03-24T18:13:53.233Z,3.00
2019-03-24T18:19:11.785Z,3.83
2019-03-24T18:24:30.277Z,2.77
2019-03-24T18:29:48.920Z,3.23
2019-03-24T18:35:08.741Z,3.10
2019-03-24T18:40:27.451Z,2.50
2019-03-24T18:45:47.870Z,2.60
2019-03-24T18:51:06.490Z,2.20
2019-03-24T18:56:25.144Z,2.70
2019-03-24T19:01:43.759Z,1.97
2019-03-24T19:07:03.854Z,2.67
2019-03-24T19:12:22.471Z,2.17
2019-03-24T19:17:41.279Z,2.10
2019-03-24T19:22:59.929Z,1.93
2019-03-24T19:28:18.576Z,2.13
2019-03-24T19:33:37.302Z,2.37
2019-03-24T19:38:55.942Z,2.10
2019-03-24T19:44:15.455Z,2.30
2019-03-24T19:49:34.000Z,2.27
2019-03-24T19:54:52.577Z,2.20
2019-03-24T20:00:12.179Z,2.30
2019-03-24T20:05:30.837Z,2.20
2019-03-24T20:10:54.372Z,3.00
2019-03-24T20:16:13.256Z,2.83
2019-03-24T20:21:33.543Z,2.73
2019-03-24T20:26:52.283Z,4.10
2019-03-24T20:32:12.685Z,3.10
2019-03-24T20:37:31.418Z,2.60
2019-03-24T20:42:50.247Z,2.43
2019-03-24T20:48:08.885Z,3.03
2019-03-24T20:53:27.514Z,2.22
2019-03-24T20:58:46.140Z,3.17
2019-03-24T21:04:04.812Z,2.80
2019-03-24T21:09:23.851Z,2.90
2019-03-24T21:14:42.534Z,3.17
2019-03-24T21:20:01.266Z,2.40
2019-03-24T21:25:19.889Z,2.72
2019-03-24T21:30:40.009Z,2.57
2019-03-24T21:35:58.537Z,2.80
2019-03-24T21:41:18.778Z,3.20
2019-03-24T21:46:37.330Z,3.10
2019-03-24T21:51:55.945Z,3.07
2019-03-24T21:57:14.560Z,4.80
2019-03-24T22:02:33.119Z,4.23
2019-03-24T22:07:51.746Z,4.80
2019-03-24T22:13:10.371Z,4.37
2019-03-24T22:18:28.908Z,4.43
2019-03-24T22:23:52.171Z,3.87
2019-03-24T22:29:07.670Z,3.80
2019-03-24T22:34:26.236Z,3.20
2019-03-24T22:39:44.833Z,3.00
2019-03-24T22:45:03.554Z,3.27
2019-03-24T22:50:22.119Z,3.50
2019-03-24T22:55:40.747Z,3.13
2019-03-24T23:00:59.437Z,3.33
2019-03-24T23:06:18.056Z,3.67
2019-03-24T23:11:36.600Z,2.90
2019-03-24T23:16:55.157Z,3.27
2019-03-24T23:22:13.648Z,2.70
2019-03-24T23:27:32.262Z,2.93
2019-03-24T23:32:50.904Z,3.30
2019-03-24T23:38:09.447Z,2.17
2019-03-24T23:43:28.364Z,2.70
2019-03-24T23:48:46.844Z,3.20
2019-03-24T23:54:05.466Z,1.83
2019-03-24T23:59:24.093Z,3.13
